sensor_id;sensor_type;location;lat;lon;timestamp;temperature;humidity
22145;DHT22;11238;48.730;11.566;2023-01-29T00:01:17;1.10;99.90
22145;DHT22;11238;48.730;11.566;2023-01-29T00:03:43;1.10;99.90
22145;DHT22;11238;48.730;11.566;2023-01-29T00:06:09;1.10;99.90
22145;DHT22;11238;48.730;11.566;2023-01-29T00:08:57;1.10;99.90
22145;DHT22;11238;48.730;11.566;2023-01-29T00:11:23;1.10;99.90
22145;DHT22;11238;48.730;11.566;2023-01-29T00:13:53;1.10;99.90
22145;DHT22;11238;48.730;11.566;2023-01-29T00:16:19;1.20;99.90
22145;DHT22;11238;48.730;11.566;2023-01-29T00:18:45;1.20;99.90
22145;DHT22;11238;48.730;11.566;2023-01-29T00:21:19;1.10;99.90
22145;DHT22;11238;48.730;11.566;2023-01-29T00:23:47;1.20;99.90
22145;DHT22;11238;48.730;11.566;2023-01-29T00:26:13;1.10;99.90
22145;DHT22;11238;48.730;11.566;2023-01-29T00:28:43;1.10;99.90
22145;DHT22;11238;48.730;11.566;2023-01-29T00:31:15;1.00;99.90
22145;DHT22;11238;48.730;11.566;2023-01-29T00:33:42;1.10;99.90
22145;DHT22;11238;48.730;11.566;2023-01-29T00:36:11;1.00;99.90
22145;DHT22;11238;48.730;11.566;2023-01-29T00:38:37;1.00;99.90
22145;DHT22;11238;48.730;11.566;2023-01-29T00:41:14;1.00;99.90
22145;DHT22;11238;48.730;11.566;2023-01-29T00:44:00;1.00;99.90
22145;DHT22;11238;48.730;11.566;2023-01-29T00:46:45;0.90;99.90
22145;DHT22;11238;48.730;11.566;2023-01-29T00:49:11;1.00;99.90
22145;DHT22;11238;48.730;11.566;2023-01-29T00:51:38;1.00;99.90
22145;DHT22;11238;48.730;11.566;2023-01-29T00:54:04;0.90;99.90
22145;DHT22;11238;48.730;11.566;2023-01-29T00:56:33;1.00;99.90
22145;DHT22;11238;48.730;11.566;2023-01-29T00:58:59;1.00;99.90
22145;DHT22;11238;48.730;11.566;2023-01-29T01:01:25;1.00;99.90
22145;DHT22;11238;48.730;11.566;2023-01-29T01:04:11;1.10;99.90
22145;DHT22;11238;48.730;11.566;2023-01-29T01:06:38;1.00;99.90
22145;DHT22;11238;48.730;11.566;2023-01-29T01:09:05;1.00;99.90
22145;DHT22;11238;48.730;11.566;2023-01-29T01:11:50;1.00;99.90
22145;DHT22;11238;48.730;11.566;2023-01-29T01:14:18;1.10;99.90
22145;DHT22;11238;48.730;11.566;2023-01-29T01:16:45;1.00;99.90
22145;DHT22;11238;48.730;11.566;2023-01-29T01:19:12;1.10;99.90
22145;DHT22;11238;48.730;11.566;2023-01-29T01:21:38;1.10;99.90
22145;DHT22;11238;48.730;11.566;2023-01-29T01:24:04;1.00;99.90
22145;DHT22;11238;48.730;11.566;2023-01-29T01:26:31;1.00;99.90
22145;DHT22;11238;48.730;11.566;2023-01-29T01:28:58;0.90;99.90
22145;DHT22;11238;48.730;11.566;2023-01-29T01:31:24;1.00;99.90
22145;DHT22;11238;48.730;11.566;2023-01-29T01:33:49;1.00;99.90
22145;DHT22;11238;48.730;11.566;2023-01-29T01:36:16;1.00;99.90
22145;DHT22;11238;48.730;11.566;2023-01-29T01:38:42;1.00;99.90
22145;DHT22;11238;48.730;11.566;2023-01-29T01:41:15;1.00;99.90
22145;DHT22;11238;48.730;11.566;2023-01-29T01:46:13;1.10;99.90
22145;DHT22;11238;48.730;11.566;2023-01-29T01:48:40;1.10;99.90
22145;DHT22;11238;48.730;11.566;2023-01-29T01:51:06;1.00;99.90
22145;DHT22;11238;48.730;11.566;2023-01-29T01:53:36;1.00;99.90
22145;DHT22;11238;48.730;11.566;2023-01-29T01:56:10;1.10;99.90
22145;DHT22;11238;48.730;11.566;2023-01-29T01:58:56;1.00;99.90
22145;DHT22;11238;48.730;11.566;2023-01-29T02:01:24;1.00;99.90
22145;DHT22;11238;48.730;11.566;2023-01-29T02:04:06;1.10;99.90
22145;DHT22;11238;48.730;11.566;2023-01-29T02:06:53;1.10;99.90
22145;DHT22;11238;48.730;11.566;2023-01-29T02:10:04;1.00;99.90
22145;DHT22;11238;48.730;11.566;2023-01-29T02:12:26;1.00;99.90
22145;DHT22;11238;48.730;11.566;2023-01-29T02:14:56;1.10;99.90
22145;DHT22;11238;48.730;11.566;2023-01-29T02:17:22;1.00;99.90
22145;DHT22;11238;48.730;11.566;2023-01-29T02:22:42;1.00;99.90
22145;DHT22;11238;48.730;11.566;2023-01-29T02:30:39;0.60;99.90
22145;DHT22;11238;48.730;11.566;2023-01-29T02:35:44;0.70;99.90
22145;DHT22;11238;48.730;11.566;2023-01-29T02:38:34;0.60;99.90
22145;DHT22;11238;48.730;11.566;2023-01-29T02:41:18;0.40;99.90
22145;DHT22;11238;48.730;11.566;2023-01-29T02:43:52;0.40;99.90
22145;DHT22;11238;48.730;11.566;2023-01-29T02:46:31;0.50;99.90
22145;DHT22;11238;48.730;11.566;2023-01-29T02:54:26;0.40;99.90
22145;DHT22;11238;48.730;11.566;2023-01-29T02:57:04;0.20;99.90
22145;DHT22;11238;48.730;11.566;2023-01-29T02:59:47;0.30;99.90
22145;DHT22;11238;48.730;11.566;2023-01-29T03:02:18;0.30;99.90
22145;DHT22;11238;48.730;11.566;2023-01-29T03:04:49;0.40;99.90
22145;DHT22;11238;48.730;11.566;2023-01-29T03:07:21;0.30;99.90
22145;DHT22;11238;48.730;11.566;2023-01-29T03:10:16;0.20;99.90
22145;DHT22;11238;48.730;11.566;2023-01-29T03:12:48;0.20;99.90
22145;DHT22;11238;48.730;11.566;2023-01-29T03:15:26;0.10;99.90
22145;DHT22;11238;48.730;11.566;2023-01-29T03:18:14;0.20;99.90
22145;DHT22;11238;48.730;11.566;2023-01-29T03:20:48;0.10;99.90
22145;DHT22;11238;48.730;11.566;2023-01-29T03:23:20;0.10;99.90
22145;DHT22;11238;48.730;11.566;2023-01-29T03:25:51;0.00;99.90
22145;DHT22;11238;48.730;11.566;2023-01-29T03:28:38;0.20;99.90
22145;DHT22;11238;48.730;11.566;2023-01-29T03:31:25;0.30;99.90
22145;DHT22;11238;48.730;11.566;2023-01-29T03:34:20;0.30;99.90
22145;DHT22;11238;48.730;11.566;2023-01-29T03:37:02;0.20;99.90
22145;DHT22;11238;48.730;11.566;2023-01-29T03:39:30;0.20;99.90
22145;DHT22;11238;48.730;11.566;2023-01-29T03:42:19;0.40;99.90
22145;DHT22;11238;48.730;11.566;2023-01-29T03:44:57;0.40;99.90
22145;DHT22;11238;48.730;11.566;2023-01-29T03:47:36;0.20;99.90
22145;DHT22;11238;48.730;11.566;2023-01-29T03:50:31;0.30;99.90
22145;DHT22;11238;48.730;11.566;2023-01-29T03:53:24;0.40;99.90
22145;DHT22;11238;48.730;11.566;2023-01-29T03:56:04;0.50;99.90
22145;DHT22;11238;48.730;11.566;2023-01-29T03:58:46;0.50;99.90
22145;DHT22;11238;48.730;11.566;2023-01-29T04:01:25;0.30;99.90
22145;DHT22;11238;48.730;11.566;2023-01-29T04:04:17;0.20;99.90
22145;DHT22;11238;48.730;11.566;2023-01-29T04:06:48;0.30;99.90
22145;DHT22;11238;48.730;11.566;2023-01-29T04:09:28;0.10;99.90
22145;DHT22;11238;48.730;11.566;2023-01-29T04:12:10;0.00;99.90
22145;DHT22;11238;48.730;11.566;2023-01-29T04:14:40;0.00;99.90
22145;DHT22;11238;48.730;11.566;2023-01-29T04:17:20;0.10;99.90
22145;DHT22;11238;48.730;11.566;2023-01-29T04:20:22;0.20;99.90
22145;DHT22;11238;48.730;11.566;2023-01-29T04:22:50;0.30;99.90
22145;DHT22;11238;48.730;11.566;2023-01-29T04:25:22;0.40;99.90
22145;DHT22;11238;48.730;11.566;2023-01-29T04:28:14;0.40;99.90
22145;DHT22;11238;48.730;11.566;2023-01-29T04:30:46;0.40;99.90
22145;DHT22;11238;48.730;11.566;2023-01-29T04:36:05;0.50;99.90
22145;DHT22;11238;48.730;11.566;2023-01-29T04:41:42;0.30;99.90
22145;DHT22;11238;48.730;11.566;2023-01-29T04:44:46;0.00;99.90
22145;DHT22;11238;48.730;11.566;2023-01-29T04:49:58;-0.20;99.90
22145;DHT22;11238;48.730;11.566;2023-01-29T04:55:24;-0.20;99.90
22145;DHT22;11238;48.730;11.566;2023-01-29T04:58:05;-0.10;99.90
22145;DHT22;11238;48.730;11.566;2023-01-29T05:00:36;-0.10;99.90
22145;DHT22;11238;48.730;11.566;2023-01-29T05:03:04;-0.20;99.90
22145;DHT22;11238;48.730;11.566;2023-01-29T05:05:34;-0.20;99.90
22145;DHT22;11238;48.730;11.566;2023-01-29T05:08:02;-0.30;99.90
22145;DHT22;11238;48.730;11.566;2023-01-29T05:10:29;-0.20;99.90
22145;DHT22;11238;48.730;11.566;2023-01-29T05:13:04;-0.20;99.90
22145;DHT22;11238;48.730;11.566;2023-01-29T05:15:40;-0.30;99.90
22145;DHT22;11238;48.730;11.566;2023-01-29T05:18:08;-0.20;99.90
22145;DHT22;11238;48.730;11.566;2023-01-29T05:20:37;-0.10;99.90
22145;DHT22;11238;48.730;11.566;2023-01-29T05:23:08;0.00;99.90
22145;DHT22;11238;48.730;11.566;2023-01-29T05:25:37;0.00;99.90
22145;DHT22;11238;48.730;11.566;2023-01-29T05:28:03;-0.10;99.90
22145;DHT22;11238;48.730;11.566;2023-01-29T05:30:35;0.00;99.90
22145;DHT22;11238;48.730;11.566;2023-01-29T05:33:02;0.00;99.90
22145;DHT22;11238;48.730;11.566;2023-01-29T05:35:29;0.10;99.90
22145;DHT22;11238;48.730;11.566;2023-01-29T05:37:55;0.10;99.90
22145;DHT22;11238;48.730;11.566;2023-01-29T05:40:22;-0.10;99.90
22145;DHT22;11238;48.730;11.566;2023-01-29T05:42:48;-0.10;99.90
22145;DHT22;11238;48.730;11.566;2023-01-29T05:45:16;-0.10;99.90
22145;DHT22;11238;48.730;11.566;2023-01-29T05:47:43;0.00;99.90
22145;DHT22;11238;48.730;11.566;2023-01-29T05:50:10;0.10;99.90
22145;DHT22;11238;48.730;11.566;2023-01-29T05:52:36;0.10;99.90
22145;DHT22;11238;48.730;11.566;2023-01-29T05:55:02;0.10;99.90
22145;DHT22;11238;48.730;11.566;2023-01-29T05:57:28;-0.10;99.90
22145;DHT22;11238;48.730;11.566;2023-01-29T05:59:54;-0.10;99.90
22145;DHT22;11238;48.730;11.566;2023-01-29T06:02:20;-0.20;99.90
22145;DHT22;11238;48.730;11.566;2023-01-29T06:04:46;-0.30;99.90
22145;DHT22;11238;48.730;11.566;2023-01-29T06:07:12;-0.30;99.90
22145;DHT22;11238;48.730;11.566;2023-01-29T06:09:38;-0.30;99.90
22145;DHT22;11238;48.730;11.566;2023-01-29T06:12:04;-0.20;99.90
22145;DHT22;11238;48.730;11.566;2023-01-29T06:14:30;-0.10;99.90
22145;DHT22;11238;48.730;11.566;2023-01-29T06:16:56;-0.20;99.90
22145;DHT22;11238;48.730;11.566;2023-01-29T06:19:22;-0.20;99.90
22145;DHT22;11238;48.730;11.566;2023-01-29T06:21:49;-0.10;99.90
22145;DHT22;11238;48.730;11.566;2023-01-29T06:24:15;0.00;99.90
22145;DHT22;11238;48.730;11.566;2023-01-29T06:26:41;-0.10;99.90
22145;DHT22;11238;48.730;11.566;2023-01-29T06:29:07;0.00;99.90
22145;DHT22;11238;48.730;11.566;2023-01-29T06:31:33;-0.10;99.90
22145;DHT22;11238;48.730;11.566;2023-01-29T06:33:59;-0.10;99.90
22145;DHT22;11238;48.730;11.566;2023-01-29T06:36:25;-0.10;99.90
22145;DHT22;11238;48.730;11.566;2023-01-29T06:38:51;-0.20;99.90
22145;DHT22;11238;48.730;11.566;2023-01-29T06:41:18;0.00;99.90
22145;DHT22;11238;48.730;11.566;2023-01-29T06:43:47;-0.20;99.90
22145;DHT22;11238;48.730;11.566;2023-01-29T06:46:13;-0.20;99.90
22145;DHT22;11238;48.730;11.566;2023-01-29T06:48:39;-0.20;99.90
22145;DHT22;11238;48.730;11.566;2023-01-29T06:51:06;-0.20;99.90
22145;DHT22;11238;48.730;11.566;2023-01-29T06:53:33;-0.30;99.90
22145;DHT22;11238;48.730;11.566;2023-01-29T06:56:00;-0.30;99.90
22145;DHT22;11238;48.730;11.566;2023-01-29T06:58:25;-0.20;99.90
22145;DHT22;11238;48.730;11.566;2023-01-29T07:00:51;-0.30;99.90
22145;DHT22;11238;48.730;11.566;2023-01-29T07:03:21;-0.40;99.90
22145;DHT22;11238;48.730;11.566;2023-01-29T07:05:51;-0.30;99.90
22145;DHT22;11238;48.730;11.566;2023-01-29T07:08:20;-0.30;99.90
22145;DHT22;11238;48.730;11.566;2023-01-29T07:10:57;-0.40;99.90
22145;DHT22;11238;48.730;11.566;2023-01-29T07:13:27;-0.40;99.90
22145;DHT22;11238;48.730;11.566;2023-01-29T07:15:52;-0.40;99.90
22145;DHT22;11238;48.730;11.566;2023-01-29T07:18:18;-0.40;99.90
22145;DHT22;11238;48.730;11.566;2023-01-29T07:20:44;-0.40;99.90
22145;DHT22;11238;48.730;11.566;2023-01-29T07:23:11;-0.40;99.90
22145;DHT22;11238;48.730;11.566;2023-01-29T07:25:38;-0.30;99.90
22145;DHT22;11238;48.730;11.566;2023-01-29T07:28:04;-0.40;99.90
22145;DHT22;11238;48.730;11.566;2023-01-29T07:30:32;-0.40;99.90
22145;DHT22;11238;48.730;11.566;2023-01-29T07:33:08;-0.30;99.90
22145;DHT22;11238;48.730;11.566;2023-01-29T07:35:49;-0.20;99.90
22145;DHT22;11238;48.730;11.566;2023-01-29T07:38:36;-0.20;99.90
22145;DHT22;11238;48.730;11.566;2023-01-29T07:41:21;-0.10;99.90
22145;DHT22;11238;48.730;11.566;2023-01-29T07:43:50;-0.10;99.90
22145;DHT22;11238;48.730;11.566;2023-01-29T07:46:21;-0.10;99.90
22145;DHT22;11238;48.730;11.566;2023-01-29T07:48:47;-0.10;99.90
22145;DHT22;11238;48.730;11.566;2023-01-29T07:51:13;-0.10;99.90
22145;DHT22;11238;48.730;11.566;2023-01-29T07:53:39;-0.10;99.90
22145;DHT22;11238;48.730;11.566;2023-01-29T07:56:05;-0.20;99.90
22145;DHT22;11238;48.730;11.566;2023-01-29T07:58:31;-0.20;99.90
22145;DHT22;11238;48.730;11.566;2023-01-29T08:00:57;-0.10;99.90
22145;DHT22;11238;48.730;11.566;2023-01-29T08:03:23;-0.10;99.90
22145;DHT22;11238;48.730;11.566;2023-01-29T08:05:49;-0.10;99.90
22145;DHT22;11238;48.730;11.566;2023-01-29T08:08:15;-0.30;99.90
22145;DHT22;11238;48.730;11.566;2023-01-29T08:10:41;-0.40;99.90
22145;DHT22;11238;48.730;11.566;2023-01-29T08:13:07;-0.30;99.90
22145;DHT22;11238;48.730;11.566;2023-01-29T08:15:33;-0.30;99.90
22145;DHT22;11238;48.730;11.566;2023-01-29T08:18:03;-0.30;99.90
22145;DHT22;11238;48.730;11.566;2023-01-29T08:20:28;-0.50;99.90
22145;DHT22;11238;48.730;11.566;2023-01-29T08:23:06;-0.40;99.90
22145;DHT22;11238;48.730;11.566;2023-01-29T08:25:33;-0.40;99.90
22145;DHT22;11238;48.730;11.566;2023-01-29T08:27:59;-0.40;99.90
22145;DHT22;11238;48.730;11.566;2023-01-29T08:30:28;-0.40;99.90
22145;DHT22;11238;48.730;11.566;2023-01-29T08:32:54;-0.40;99.90
22145;DHT22;11238;48.730;11.566;2023-01-29T08:35:21;-0.30;99.90
22145;DHT22;11238;48.730;11.566;2023-01-29T08:37:57;-0.10;99.90
22145;DHT22;11238;48.730;11.566;2023-01-29T08:40:29;-0.10;99.90
22145;DHT22;11238;48.730;11.566;2023-01-29T08:43:00;0.00;99.90
22145;DHT22;11238;48.730;11.566;2023-01-29T08:45:26;0.10;99.90
22145;DHT22;11238;48.730;11.566;2023-01-29T08:47:52;0.10;99.90
22145;DHT22;11238;48.730;11.566;2023-01-29T08:50:18;0.10;99.90
22145;DHT22;11238;48.730;11.566;2023-01-29T08:52:44;0.20;99.90
22145;DHT22;11238;48.730;11.566;2023-01-29T08:55:10;0.10;99.90
22145;DHT22;11238;48.730;11.566;2023-01-29T08:57:37;0.20;99.90
22145;DHT22;11238;48.730;11.566;2023-01-29T09:00:05;0.20;99.90
22145;DHT22;11238;48.730;11.566;2023-01-29T09:02:31;0.30;99.90
22145;DHT22;11238;48.730;11.566;2023-01-29T09:04:57;0.20;99.90
22145;DHT22;11238;48.730;11.566;2023-01-29T09:07:23;0.20;99.90
22145;DHT22;11238;48.730;11.566;2023-01-29T09:09:49;0.20;99.90
22145;DHT22;11238;48.730;11.566;2023-01-29T09:12:15;0.20;99.90
22145;DHT22;11238;48.730;11.566;2023-01-29T09:14:40;0.30;99.90
22145;DHT22;11238;48.730;11.566;2023-01-29T09:17:09;0.30;99.90
22145;DHT22;11238;48.730;11.566;2023-01-29T09:19:35;0.30;99.90
22145;DHT22;11238;48.730;11.566;2023-01-29T09:22:03;0.30;99.90
22145;DHT22;11238;48.730;11.566;2023-01-29T09:24:29;0.20;99.90
22145;DHT22;11238;48.730;11.566;2023-01-29T09:26:54;0.30;99.90
22145;DHT22;11238;48.730;11.566;2023-01-29T09:29:20;0.30;99.90
22145;DHT22;11238;48.730;11.566;2023-01-29T09:31:46;0.30;99.90
22145;DHT22;11238;48.730;11.566;2023-01-29T09:34:12;0.20;99.90
22145;DHT22;11238;48.730;11.566;2023-01-29T09:36:37;0.20;99.90
22145;DHT22;11238;48.730;11.566;2023-01-29T09:39:03;0.20;99.90
22145;DHT22;11238;48.730;11.566;2023-01-29T09:41:45;0.20;99.90
22145;DHT22;11238;48.730;11.566;2023-01-29T09:44:32;0.30;99.90
22145;DHT22;11238;48.730;11.566;2023-01-29T09:47:03;0.30;99.90
22145;DHT22;11238;48.730;11.566;2023-01-29T09:49:39;0.40;99.90
22145;DHT22;11238;48.730;11.566;2023-01-29T09:52:23;0.30;99.90
22145;DHT22;11238;48.730;11.566;2023-01-29T09:57:47;0.30;99.90
22145;DHT22;11238;48.730;11.566;2023-01-29T10:00:19;0.40;99.90
22145;DHT22;11238;48.730;11.566;2023-01-29T10:03:03;0.40;99.90
22145;DHT22;11238;48.730;11.566;2023-01-29T10:06:02;0.30;99.90
22145;DHT22;11238;48.730;11.566;2023-01-29T10:11:18;0.40;99.90
22145;DHT22;11238;48.730;11.566;2023-01-29T10:19:51;0.50;99.90
22145;DHT22;11238;48.730;11.566;2023-01-29T10:24:56;0.30;99.90
22145;DHT22;11238;48.730;11.566;2023-01-29T10:27:27;0.40;99.90
22145;DHT22;11238;48.730;11.566;2023-01-29T10:29:55;0.50;99.90
22145;DHT22;11238;48.730;11.566;2023-01-29T10:32:24;0.30;99.90
22145;DHT22;11238;48.730;11.566;2023-01-29T10:35:55;0.30;99.90
22145;DHT22;11238;48.730;11.566;2023-01-29T10:37:52;0.30;99.90
22145;DHT22;11238;48.730;11.566;2023-01-29T10:40:21;0.30;99.90
22145;DHT22;11238;48.730;11.566;2023-01-29T10:43:05;0.20;99.90
22145;DHT22;11238;48.730;11.566;2023-01-29T10:45:42;0.20;99.90
22145;DHT22;11238;48.730;11.566;2023-01-29T10:51:24;0.30;99.90
22145;DHT22;11238;48.730;11.566;2023-01-29T10:54:16;0.30;99.90
22145;DHT22;11238;48.730;11.566;2023-01-29T10:57:13;0.30;99.90
22145;DHT22;11238;48.730;11.566;2023-01-29T10:59:58;0.30;99.90
22145;DHT22;11238;48.730;11.566;2023-01-29T11:02:26;0.20;99.90
22145;DHT22;11238;48.730;11.566;2023-01-29T11:04:52;0.10;99.90
22145;DHT22;11238;48.730;11.566;2023-01-29T11:07:21;0.10;99.90
22145;DHT22;11238;48.730;11.566;2023-01-29T11:09:56;0.10;99.90
22145;DHT22;11238;48.730;11.566;2023-01-29T11:12:29;0.20;99.90
22145;DHT22;11238;48.730;11.566;2023-01-29T11:15:13;0.20;99.90
22145;DHT22;11238;48.730;11.566;2023-01-29T11:17:59;0.20;99.90
22145;DHT22;11238;48.730;11.566;2023-01-29T11:20:27;0.20;99.90
22145;DHT22;11238;48.730;11.566;2023-01-29T11:22:53;0.30;99.90
22145;DHT22;11238;48.730;11.566;2023-01-29T11:25:21;0.20;99.90
22145;DHT22;11238;48.730;11.566;2023-01-29T11:27:53;0.20;99.90
22145;DHT22;11238;48.730;11.566;2023-01-29T11:30:29;0.20;99.90
22145;DHT22;11238;48.730;11.566;2023-01-29T11:33:20;0.30;99.90
22145;DHT22;11238;48.730;11.566;2023-01-29T11:35:49;0.30;99.90
22145;DHT22;11238;48.730;11.566;2023-01-29T11:40:46;0.30;99.90
22145;DHT22;11238;48.730;11.566;2023-01-29T11:43:12;0.40;99.90
22145;DHT22;11238;48.730;11.566;2023-01-29T11:45:42;0.30;99.90
22145;DHT22;11238;48.730;11.566;2023-01-29T11:48:18;0.50;99.90
22145;DHT22;11238;48.730;11.566;2023-01-29T11:50:57;0.50;99.90
22145;DHT22;11238;48.730;11.566;2023-01-29T11:56:42;0.40;99.90
22145;DHT22;11238;48.730;11.566;2023-01-29T11:59:40;0.40;99.90
22145;DHT22;11238;48.730;11.566;2023-01-29T12:04:48;0.40;99.90
22145;DHT22;11238;48.730;11.566;2023-01-29T12:07:16;0.30;99.90
22145;DHT22;11238;48.730;11.566;2023-01-29T12:09:55;0.30;99.90
22145;DHT22;11238;48.730;11.566;2023-01-29T12:12:38;0.30;99.90
22145;DHT22;11238;48.730;11.566;2023-01-29T12:15:18;0.30;99.90
22145;DHT22;11238;48.730;11.566;2023-01-29T12:21:03;0.50;99.90
22145;DHT22;11238;48.730;11.566;2023-01-29T12:24:22;0.40;99.90
22145;DHT22;11238;48.730;11.566;2023-01-29T12:27:18;0.40;99.90
22145;DHT22;11238;48.730;11.566;2023-01-29T12:29:55;0.30;99.90
22145;DHT22;11238;48.730;11.566;2023-01-29T12:35:09;0.40;99.90
22145;DHT22;11238;48.730;11.566;2023-01-29T12:40:18;0.60;99.90
22145;DHT22;11238;48.730;11.566;2023-01-29T12:42:48;0.60;99.90
22145;DHT22;11238;48.730;11.566;2023-01-29T12:45:21;0.50;99.90
22145;DHT22;11238;48.730;11.566;2023-01-29T12:48:00;0.50;99.90
22145;DHT22;11238;48.730;11.566;2023-01-29T12:50:28;0.50;99.90
22145;DHT22;11238;48.730;11.566;2023-01-29T12:52:57;0.50;99.90
22145;DHT22;11238;48.730;11.566;2023-01-29T12:55:28;0.50;99.90
22145;DHT22;11238;48.730;11.566;2023-01-29T12:57:58;0.40;99.90
22145;DHT22;11238;48.730;11.566;2023-01-29T13:00:33;0.40;99.90
22145;DHT22;11238;48.730;11.566;2023-01-29T13:05:58;0.50;99.90
22145;DHT22;11238;48.730;11.566;2023-01-29T13:08:34;0.50;99.90
22145;DHT22;11238;48.730;11.566;2023-01-29T13:11:07;0.50;99.90
22145;DHT22;11238;48.730;11.566;2023-01-29T13:13:35;0.50;99.90
22145;DHT22;11238;48.730;11.566;2023-01-29T13:16:09;0.50;99.90
22145;DHT22;11238;48.730;11.566;2023-01-29T13:21:24;0.50;99.90
22145;DHT22;11238;48.730;11.566;2023-01-29T13:23:58;0.40;99.90
22145;DHT22;11238;48.730;11.566;2023-01-29T13:26:25;0.40;99.90
22145;DHT22;11238;48.730;11.566;2023-01-29T13:28:51;0.40;99.90
22145;DHT22;11238;48.730;11.566;2023-01-29T13:31:30;0.30;99.90
22145;DHT22;11238;48.730;11.566;2023-01-29T13:34:13;0.30;99.90
22145;DHT22;11238;48.730;11.566;2023-01-29T13:37:00;0.40;99.90
22145;DHT22;11238;48.730;11.566;2023-01-29T13:39:31;0.40;99.90
22145;DHT22;11238;48.730;11.566;2023-01-29T13:41:59;0.30;99.90
22145;DHT22;11238;48.730;11.566;2023-01-29T13:44:30;0.30;99.90
22145;DHT22;11238;48.730;11.566;2023-01-29T13:47:09;0.40;99.90
22145;DHT22;11238;48.730;11.566;2023-01-29T13:49:40;0.40;99.90
22145;DHT22;11238;48.730;11.566;2023-01-29T13:52:33;0.40;99.90
22145;DHT22;11238;48.730;11.566;2023-01-29T13:55:03;0.40;99.90
22145;DHT22;11238;48.730;11.566;2023-01-29T14:05:57;0.40;99.90
22145;DHT22;11238;48.730;11.566;2023-01-29T14:08:43;0.40;99.90
22145;DHT22;11238;48.730;11.566;2023-01-29T14:13:38;0.40;99.90
22145;DHT22;11238;48.730;11.566;2023-01-29T14:18:32;0.40;99.90
22145;DHT22;11238;48.730;11.566;2023-01-29T14:21:06;0.50;99.90
22145;DHT22;11238;48.730;11.566;2023-01-29T14:23:55;0.40;99.90
22145;DHT22;11238;48.730;11.566;2023-01-29T14:26:32;0.40;99.90
22145;DHT22;11238;48.730;11.566;2023-01-29T14:31:51;0.40;99.90
22145;DHT22;11238;48.730;11.566;2023-01-29T14:34:28;0.40;99.90
22145;DHT22;11238;48.730;11.566;2023-01-29T14:37:00;0.40;99.90
22145;DHT22;11238;48.730;11.566;2023-01-29T14:39:34;0.40;99.90
22145;DHT22;11238;48.730;11.566;2023-01-29T14:42:04;0.40;99.90
22145;DHT22;11238;48.730;11.566;2023-01-29T14:44:58;0.40;99.90
22145;DHT22;11238;48.730;11.566;2023-01-29T14:49:59;0.40;99.90
22145;DHT22;11238;48.730;11.566;2023-01-29T14:52:41;0.40;99.90
22145;DHT22;11238;48.730;11.566;2023-01-29T14:55:29;0.40;99.90
22145;DHT22;11238;48.730;11.566;2023-01-29T14:57:57;0.40;99.90
22145;DHT22;11238;48.730;11.566;2023-01-29T15:00:37;0.40;99.90
22145;DHT22;11238;48.730;11.566;2023-01-29T15:03:12;0.40;99.90
22145;DHT22;11238;48.730;11.566;2023-01-29T15:05:39;0.30;99.90
22145;DHT22;11238;48.730;11.566;2023-01-29T15:10:50;0.40;99.90
22145;DHT22;11238;48.730;11.566;2023-01-29T15:14:08;0.30;99.90
22145;DHT22;11238;48.730;11.566;2023-01-29T15:17:53;0.30;99.90
22145;DHT22;11238;48.730;11.566;2023-01-29T15:19:48;0.30;99.90
22145;DHT22;11238;48.730;11.566;2023-01-29T15:22:19;0.20;99.90
22145;DHT22;11238;48.730;11.566;2023-01-29T15:25:00;0.20;99.90
22145;DHT22;11238;48.730;11.566;2023-01-29T15:27:27;0.10;99.90
22145;DHT22;11238;48.730;11.566;2023-01-29T15:29:58;0.20;99.90
22145;DHT22;11238;48.730;11.566;2023-01-29T15:32:45;0.20;99.90
22145;DHT22;11238;48.730;11.566;2023-01-29T15:35:27;0.20;99.90
22145;DHT22;11238;48.730;11.566;2023-01-29T15:38:17;0.20;99.90
22145;DHT22;11238;48.730;11.566;2023-01-29T15:41:00;0.20;99.90
22145;DHT22;11238;48.730;11.566;2023-01-29T15:43:36;0.20;99.90
22145;DHT22;11238;48.730;11.566;2023-01-29T15:46:21;0.20;99.90
22145;DHT22;11238;48.730;11.566;2023-01-29T15:48:49;0.20;99.90
22145;DHT22;11238;48.730;11.566;2023-01-29T15:51:19;0.30;99.90
22145;DHT22;11238;48.730;11.566;2023-01-29T15:53:50;0.20;99.90
22145;DHT22;11238;48.730;11.566;2023-01-29T15:56:20;0.20;99.90
22145;DHT22;11238;48.730;11.566;2023-01-29T15:58:49;0.20;99.90
22145;DHT22;11238;48.730;11.566;2023-01-29T16:01:15;0.20;99.90
22145;DHT22;11238;48.730;11.566;2023-01-29T16:03:41;0.20;99.90
22145;DHT22;11238;48.730;11.566;2023-01-29T16:06:08;0.20;99.90
22145;DHT22;11238;48.730;11.566;2023-01-29T16:08:34;0.20;99.90
22145;DHT22;11238;48.730;11.566;2023-01-29T16:11:03;0.20;99.90
22145;DHT22;11238;48.730;11.566;2023-01-29T16:13:34;0.20;99.90
22145;DHT22;11238;48.730;11.566;2023-01-29T16:18:37;0.20;99.90
22145;DHT22;11238;48.730;11.566;2023-01-29T16:21:13;0.30;99.90
22145;DHT22;11238;48.730;11.566;2023-01-29T16:23:47;0.40;99.90
22145;DHT22;11238;48.730;11.566;2023-01-29T16:26:20;0.40;99.90
22145;DHT22;11238;48.730;11.566;2023-01-29T16:28:49;0.50;99.90
22145;DHT22;11238;48.730;11.566;2023-01-29T16:31:24;0.50;99.90
22145;DHT22;11238;48.730;11.566;2023-01-29T16:33:51;0.50;99.90
22145;DHT22;11238;48.730;11.566;2023-01-29T16:36:20;0.60;99.90
22145;DHT22;11238;48.730;11.566;2023-01-29T16:38:56;0.60;99.90
22145;DHT22;11238;48.730;11.566;2023-01-29T16:43:55;0.60;99.90
22145;DHT22;11238;48.730;11.566;2023-01-29T16:46:37;0.60;99.90
22145;DHT22;11238;48.730;11.566;2023-01-29T16:51:50;0.70;99.90
22145;DHT22;11238;48.730;11.566;2023-01-29T16:54:20;0.60;99.90
22145;DHT22;11238;48.730;11.566;2023-01-29T16:56:50;0.60;99.90
22145;DHT22;11238;48.730;11.566;2023-01-29T16:59:35;0.50;99.90
22145;DHT22;11238;48.730;11.566;2023-01-29T17:02:04;0.50;99.90
22145;DHT22;11238;48.730;11.566;2023-01-29T17:04:39;0.60;99.90
22145;DHT22;11238;48.730;11.566;2023-01-29T17:07:05;0.60;99.90
22145;DHT22;11238;48.730;11.566;2023-01-29T17:09:40;0.60;99.90
22145;DHT22;11238;48.730;11.566;2023-01-29T17:12:08;0.60;99.90
22145;DHT22;11238;48.730;11.566;2023-01-29T17:14:34;0.60;99.90
22145;DHT22;11238;48.730;11.566;2023-01-29T17:17:06;0.60;99.90
22145;DHT22;11238;48.730;11.566;2023-01-29T17:19:32;0.60;99.90
22145;DHT22;11238;48.730;11.566;2023-01-29T17:21:58;0.60;99.90
22145;DHT22;11238;48.730;11.566;2023-01-29T17:24:26;0.50;99.90
22145;DHT22;11238;48.730;11.566;2023-01-29T17:26:52;0.50;99.90
22145;DHT22;11238;48.730;11.566;2023-01-29T17:29:23;0.40;99.90
22145;DHT22;11238;48.730;11.566;2023-01-29T17:31:51;0.50;99.90
22145;DHT22;11238;48.730;11.566;2023-01-29T17:34:16;0.30;99.90
22145;DHT22;11238;48.730;11.566;2023-01-29T17:36:44;0.20;99.90
22145;DHT22;11238;48.730;11.566;2023-01-29T17:39:21;0.30;99.90
22145;DHT22;11238;48.730;11.566;2023-01-29T17:41:50;0.20;99.90